BAW9026 LHBP-LWSK
Flight info
| Callsign | BAW9026 |
|---|---|
| Flight time | 1h 2m |
| Altitude | 37000 |
| Route | FAHAZ2L FAHAZ DCT KEROP DCT REDVA UL616 KOGAT KOGAT1A |
| Aircraft | A21N/M-SDE3FGIJ1LRWXYZ/SB1G1 |
Departure
| Time | 2026-05-09 08:57 |
|---|---|
| Airport | Budapest Liszt Ferenc International Airport (LHBP) |
Arrival
| Time | 2026-05-09 09:59 |
|---|---|
| Airport | Skopje International Airport (LWSK) |
| Time | Latitude | Longitude | Altitude | Speed | Heading |
|---|---|---|---|---|---|
| 2026-05-09 08:30 | 47.43087 | 19.26003 | 463 ft | 0 kts | 43° |
| 2026-05-09 08:47 | 47.43070 | 19.25980 | 461 ft | 4 kts | 42° |
| 2026-05-09 08:47 | 47.43052 | 19.25957 | 458 ft | 4 kts | 47° |
| 2026-05-09 08:47 | 47.43045 | 19.25929 | 458 ft | 5 kts | 110° |
| 2026-05-09 08:48 | 47.43053 | 19.25900 | 458 ft | 4 kts | 107° |
| 2026-05-09 08:48 | 47.43057 | 19.25883 | 458 ft | 5 kts | 132° |
| 2026-05-09 08:51 | 47.43056 | 19.25884 | 458 ft | 1 kts | 132° |
| 2026-05-09 08:52 | 47.43058 | 19.25902 | 459 ft | 3 kts | 48° |
| 2026-05-09 08:52 | 47.43077 | 19.25877 | 460 ft | 5 kts | 294° |
| 2026-05-09 08:52 | 47.43101 | 19.25824 | 463 ft | 6 kts | 309° |
| 2026-05-09 08:52 | 47.43135 | 19.25767 | 461 ft | 8 kts | 311° |
| 2026-05-09 08:53 | 47.43179 | 19.25693 | 463 ft | 11 kts | 312° |
| 2026-05-09 08:53 | 47.43234 | 19.25606 | 463 ft | 13 kts | 313° |
| 2026-05-09 08:53 | 47.43299 | 19.25504 | 463 ft | 14 kts | 313° |
| 2026-05-09 08:53 | 47.43335 | 19.25440 | 463 ft | 9 kts | 291° |
| 2026-05-09 08:54 | 47.43315 | 19.25350 | 463 ft | 11 kts | 228° |
| 2026-05-09 08:54 | 47.43269 | 19.25287 | 463 ft | 9 kts | 223° |
| 2026-05-09 08:54 | 47.43216 | 19.25214 | 463 ft | 11 kts | 223° |
| 2026-05-09 08:54 | 47.43175 | 19.25159 | 462 ft | 7 kts | 222° |
| 2026-05-09 08:55 | 47.43134 | 19.25103 | 463 ft | 9 kts | 222° |
| 2026-05-09 08:55 | 47.43083 | 19.25029 | 463 ft | 11 kts | 238° |
| 2026-05-09 08:55 | 47.43096 | 19.24947 | 462 ft | 0 kts | 312° |
| 2026-05-09 08:56 | 47.43214 | 19.24756 | 461 ft | 63 kts | 312° |
| 2026-05-09 08:56 | 47.43675 | 19.24016 | 459 ft | 129 kts | 312° |
| 2026-05-09 08:56 | 47.44332 | 19.22976 | 486 ft | 170 kts | 313° |
| 2026-05-09 08:56 | 47.45110 | 19.21712 | 1094 ft | 168 kts | 313° |
| 2026-05-09 08:57 | 47.45895 | 19.20406 | 1739 ft | 172 kts | 311° |
| 2026-05-09 08:57 | 47.46740 | 19.19017 | 2169 ft | 192 kts | 313° |
| 2026-05-09 08:57 | 47.47686 | 19.17495 | 2774 ft | 209 kts | 313° |
| 2026-05-09 08:57 | 47.48657 | 19.15744 | 3338 ft | 232 kts | 301° |
| 2026-05-09 08:58 | 47.49154 | 19.13473 | 4158 ft | 241 kts | 276° |
| 2026-05-09 08:58 | 47.48927 | 19.11009 | 5121 ft | 247 kts | 250° |
| 2026-05-09 08:58 | 47.47965 | 19.08886 | 6117 ft | 253 kts | 224° |
| 2026-05-09 08:58 | 47.46460 | 19.07504 | 7104 ft | 256 kts | 207° |
| 2026-05-09 08:59 | 47.44757 | 19.06625 | 7820 ft | 272 kts | 191° |
| 2026-05-09 08:59 | 47.42790 | 19.06467 | 8504 ft | 285 kts | 182° |
| 2026-05-09 08:59 | 47.40790 | 19.06461 | 9393 ft | 290 kts | 182° |
| 2026-05-09 08:59 | 47.38757 | 19.06440 | 10292 ft | 295 kts | 183° |
| 2026-05-09 09:00 | 47.36624 | 19.06397 | 10706 ft | 317 kts | 183° |
| 2026-05-09 09:00 | 47.34336 | 19.06336 | 11042 ft | 340 kts | 183° |
| 2026-05-09 09:00 | 47.31912 | 19.06265 | 11534 ft | 355 kts | 183° |
| 2026-05-09 09:00 | 47.29420 | 19.06190 | 12310 ft | 360 kts | 183° |
| 2026-05-09 09:01 | 47.26920 | 19.06111 | 13156 ft | 363 kts | 182° |
| 2026-05-09 09:01 | 47.24411 | 19.06031 | 13973 ft | 366 kts | 182° |
| 2026-05-09 09:01 | 47.21848 | 19.05946 | 14701 ft | 370 kts | 182° |
| 2026-05-09 09:01 | 47.19260 | 19.05860 | 15400 ft | 374 kts | 182° |
| 2026-05-09 09:02 | 47.16641 | 19.05775 | 16090 ft | 378 kts | 182° |
| 2026-05-09 09:02 | 47.13998 | 19.05688 | 16756 ft | 383 kts | 182° |
| 2026-05-09 09:02 | 47.11316 | 19.05601 | 17409 ft | 387 kts | 182° |
| 2026-05-09 09:02 | 47.08607 | 19.05512 | 18075 ft | 391 kts | 182° |
| 2026-05-09 09:03 | 47.05868 | 19.05422 | 18672 ft | 395 kts | 182° |
| 2026-05-09 09:03 | 47.03114 | 19.05332 | 19259 ft | 397 kts | 182° |
| 2026-05-09 09:03 | 47.00343 | 19.05241 | 19872 ft | 398 kts | 182° |
| 2026-05-09 09:03 | 46.97602 | 19.05152 | 20475 ft | 400 kts | 182° |
| 2026-05-09 09:04 | 46.94821 | 19.05060 | 21084 ft | 401 kts | 183° |
| 2026-05-09 09:04 | 46.92015 | 19.05008 | 21691 ft | 404 kts | 180° |
| 2026-05-09 09:04 | 46.89216 | 19.05517 | 22264 ft | 409 kts | 168° |
| 2026-05-09 09:04 | 46.86531 | 19.06967 | 22858 ft | 415 kts | 155° |
| 2026-05-09 09:05 | 46.84048 | 19.09158 | 23431 ft | 419 kts | 149° |
| 2026-05-09 09:05 | 46.81601 | 19.11515 | 23945 ft | 422 kts | 149° |
| 2026-05-09 09:05 | 46.79139 | 19.13871 | 24394 ft | 425 kts | 149° |
| 2026-05-09 09:05 | 46.76647 | 19.16222 | 24826 ft | 428 kts | 150° |
| 2026-05-09 09:06 | 46.74129 | 19.18573 | 25255 ft | 431 kts | 150° |
| 2026-05-09 09:06 | 46.71590 | 19.20932 | 25668 ft | 434 kts | 150° |
| 2026-05-09 09:06 | 46.69063 | 19.23275 | 26075 ft | 437 kts | 150° |
| 2026-05-09 09:06 | 46.66494 | 19.25653 | 26477 ft | 440 kts | 150° |
| 2026-05-09 09:07 | 46.63890 | 19.28060 | 26866 ft | 444 kts | 150° |
| 2026-05-09 09:07 | 46.61278 | 19.30473 | 27260 ft | 447 kts | 150° |
| 2026-05-09 09:07 | 46.58644 | 19.32905 | 27637 ft | 449 kts | 150° |
| 2026-05-09 09:07 | 46.55993 | 19.35346 | 28012 ft | 452 kts | 150° |
| 2026-05-09 09:08 | 46.53330 | 19.37794 | 28387 ft | 455 kts | 150° |
| 2026-05-09 09:08 | 46.50640 | 19.40265 | 28743 ft | 458 kts | 150° |
| 2026-05-09 09:08 | 46.47942 | 19.42744 | 29082 ft | 460 kts | 150° |
| 2026-05-09 09:08 | 46.45226 | 19.45241 | 29429 ft | 463 kts | 150° |
| 2026-05-09 09:09 | 46.42502 | 19.47741 | 29867 ft | 463 kts | 150° |
| 2026-05-09 09:09 | 46.39782 | 19.50232 | 30310 ft | 462 kts | 150° |
| 2026-05-09 09:09 | 46.37067 | 19.52714 | 30636 ft | 463 kts | 150° |
| 2026-05-09 09:09 | 46.34341 | 19.55202 | 30940 ft | 464 kts | 150° |
| 2026-05-09 09:10 | 46.31603 | 19.57698 | 31260 ft | 465 kts | 150° |
| 2026-05-09 09:10 | 46.28875 | 19.60184 | 31581 ft | 466 kts | 150° |
| 2026-05-09 09:10 | 46.26126 | 19.62686 | 31878 ft | 467 kts | 150° |
| 2026-05-09 09:10 | 46.23374 | 19.65186 | 32186 ft | 468 kts | 150° |
| 2026-05-09 09:11 | 46.20617 | 19.67668 | 32482 ft | 468 kts | 152° |
| 2026-05-09 09:11 | 46.17735 | 19.69688 | 32741 ft | 465 kts | 163° |
| 2026-05-09 09:11 | 46.14628 | 19.70901 | 33008 ft | 462 kts | 171° |
| 2026-05-09 09:11 | 46.11475 | 19.71816 | 33281 ft | 463 kts | 172° |
| 2026-05-09 09:12 | 46.08303 | 19.72706 | 33561 ft | 464 kts | 172° |
| 2026-05-09 09:12 | 46.05131 | 19.73613 | 33801 ft | 465 kts | 172° |
| 2026-05-09 09:12 | 46.01957 | 19.74537 | 34047 ft | 466 kts | 172° |
| 2026-05-09 09:12 | 45.98771 | 19.75474 | 34273 ft | 467 kts | 172° |
| 2026-05-09 09:13 | 45.95582 | 19.76412 | 34538 ft | 466 kts | 172° |
| 2026-05-09 09:13 | 45.92407 | 19.77347 | 34803 ft | 465 kts | 172° |
| 2026-05-09 09:13 | 45.89235 | 19.78285 | 35066 ft | 464 kts | 172° |
| 2026-05-09 09:13 | 45.86075 | 19.79215 | 35329 ft | 463 kts | 172° |
| 2026-05-09 09:14 | 45.82916 | 19.80138 | 35568 ft | 462 kts | 172° |
| 2026-05-09 09:14 | 45.79812 | 19.81042 | 35796 ft | 461 kts | 172° |
| 2026-05-09 09:14 | 45.76663 | 19.81959 | 36023 ft | 461 kts | 172° |
| 2026-05-09 09:14 | 45.73523 | 19.82875 | 36245 ft | 460 kts | 172° |
| 2026-05-09 09:15 | 45.70385 | 19.83790 | 36464 ft | 459 kts | 172° |
| 2026-05-09 09:15 | 45.67259 | 19.84701 | 36694 ft | 458 kts | 172° |
| 2026-05-09 09:15 | 45.64131 | 19.85610 | 36896 ft | 458 kts | 172° |
| 2026-05-09 09:15 | 45.61011 | 19.86516 | 37085 ft | 457 kts | 172° |
| 2026-05-09 09:16 | 45.57889 | 19.87422 | 37122 ft | 457 kts | 172° |
| 2026-05-09 09:16 | 45.48557 | 19.90124 | 37082 ft | 456 kts | 172° |
| 2026-05-09 09:17 | 45.42331 | 19.91922 | 37082 ft | 457 kts | 172° |
| 2026-05-09 09:17 | 45.36107 | 19.93715 | 37079 ft | 457 kts | 172° |
| 2026-05-09 09:18 | 45.29873 | 19.95507 | 37077 ft | 457 kts | 172° |
| 2026-05-09 09:18 | 45.23636 | 19.97296 | 37078 ft | 457 kts | 172° |
| 2026-05-09 09:19 | 45.17437 | 19.99070 | 37077 ft | 457 kts | 172° |
| 2026-05-09 09:19 | 45.11211 | 20.00848 | 37080 ft | 458 kts | 172° |
| 2026-05-09 09:20 | 45.04946 | 20.02631 | 37075 ft | 458 kts | 172° |
| 2026-05-09 09:20 | 44.98695 | 20.04408 | 37080 ft | 458 kts | 172° |
| 2026-05-09 09:21 | 44.92435 | 20.06182 | 37082 ft | 458 kts | 172° |
| 2026-05-09 09:21 | 44.86195 | 20.07949 | 37082 ft | 458 kts | 172° |
| 2026-05-09 09:22 | 44.79970 | 20.09705 | 37076 ft | 459 kts | 172° |
| 2026-05-09 09:22 | 44.73716 | 20.11468 | 37077 ft | 459 kts | 172° |
| 2026-05-09 09:23 | 44.67445 | 20.13230 | 37077 ft | 459 kts | 172° |
| 2026-05-09 09:23 | 44.62194 | 20.14706 | 37087 ft | 459 kts | 172° |
| 2026-05-09 09:24 | 44.55966 | 20.16450 | 37091 ft | 459 kts | 172° |
| 2026-05-09 09:24 | 44.49697 | 20.18200 | 37095 ft | 459 kts | 172° |
| 2026-05-09 09:25 | 44.43429 | 20.19945 | 37095 ft | 459 kts | 172° |
| 2026-05-09 09:25 | 44.37154 | 20.21691 | 37094 ft | 459 kts | 172° |
| 2026-05-09 09:26 | 44.30882 | 20.23432 | 37094 ft | 459 kts | 172° |
| 2026-05-09 09:26 | 44.24616 | 20.25167 | 37096 ft | 459 kts | 172° |
| 2026-05-09 09:27 | 44.18348 | 20.26898 | 37102 ft | 459 kts | 172° |
| 2026-05-09 09:27 | 44.12088 | 20.28623 | 37103 ft | 459 kts | 172° |
| 2026-05-09 09:28 | 44.05810 | 20.30352 | 37104 ft | 459 kts | 172° |
| 2026-05-09 09:28 | 43.99540 | 20.32077 | 37104 ft | 459 kts | 172° |
| 2026-05-09 09:29 | 43.93265 | 20.33794 | 37104 ft | 459 kts | 172° |
| 2026-05-09 09:29 | 43.87034 | 20.35497 | 37107 ft | 459 kts | 172° |
| 2026-05-09 09:30 | 43.80749 | 20.37211 | 37117 ft | 459 kts | 172° |
| 2026-05-09 09:30 | 43.74472 | 20.38920 | 37114 ft | 460 kts | 172° |
| 2026-05-09 09:31 | 43.68218 | 20.40619 | 37112 ft | 458 kts | 172° |
| 2026-05-09 09:32 | 43.58899 | 20.43142 | 37110 ft | 453 kts | 172° |
| 2026-05-09 09:32 | 43.52655 | 20.44828 | 37110 ft | 460 kts | 172° |
| 2026-05-09 09:33 | 43.46404 | 20.46514 | 36729 ft | 456 kts | 172° |
| 2026-05-09 09:33 | 43.43331 | 20.47341 | 36443 ft | 457 kts | 172° |
| 2026-05-09 09:33 | 43.40209 | 20.48181 | 36178 ft | 457 kts | 172° |
| 2026-05-09 09:33 | 43.37085 | 20.49023 | 35928 ft | 458 kts | 172° |
| 2026-05-09 09:34 | 43.33919 | 20.49874 | 35671 ft | 457 kts | 172° |
| 2026-05-09 09:34 | 43.30832 | 20.50700 | 35307 ft | 456 kts | 172° |
| 2026-05-09 09:34 | 43.27732 | 20.51529 | 34737 ft | 455 kts | 172° |
| 2026-05-09 09:36 | 43.05926 | 20.57343 | 30172 ft | 452 kts | 172° |
| 2026-05-09 09:36 | 43.02845 | 20.58168 | 29535 ft | 450 kts | 172° |
| 2026-05-09 09:36 | 42.99823 | 20.59331 | 28896 ft | 452 kts | 163° |
| 2026-05-09 09:37 | 42.96894 | 20.60854 | 28308 ft | 449 kts | 161° |
| 2026-05-09 09:37 | 42.93994 | 20.62413 | 27742 ft | 446 kts | 161° |
| 2026-05-09 09:37 | 42.91111 | 20.63958 | 27152 ft | 443 kts | 161° |
| 2026-05-09 09:37 | 42.88289 | 20.65455 | 26584 ft | 441 kts | 161° |
| 2026-05-09 09:38 | 42.85389 | 20.66987 | 25999 ft | 439 kts | 161° |
| 2026-05-09 09:38 | 42.82550 | 20.68483 | 25443 ft | 437 kts | 161° |
| 2026-05-09 09:38 | 42.79720 | 20.69971 | 24891 ft | 435 kts | 162° |
| 2026-05-09 09:38 | 42.76900 | 20.71451 | 24315 ft | 434 kts | 162° |
| 2026-05-09 09:39 | 42.74083 | 20.72929 | 23742 ft | 433 kts | 162° |
| 2026-05-09 09:39 | 42.71314 | 20.74382 | 23101 ft | 431 kts | 161° |
| 2026-05-09 09:39 | 42.68559 | 20.75939 | 22441 ft | 429 kts | 154° |
| 2026-05-09 09:39 | 42.66124 | 20.78304 | 22030 ft | 422 kts | 141° |
| 2026-05-09 09:40 | 42.63963 | 20.80915 | 21745 ft | 410 kts | 140° |
| 2026-05-09 09:40 | 42.61870 | 20.83470 | 21354 ft | 402 kts | 140° |
| 2026-05-09 09:40 | 42.59780 | 20.85983 | 21112 ft | 399 kts | 140° |
| 2026-05-09 09:40 | 42.57719 | 20.88431 | 20952 ft | 398 kts | 140° |
| 2026-05-09 09:41 | 42.55634 | 20.90893 | 20803 ft | 396 kts | 140° |
| 2026-05-09 09:41 | 42.53553 | 20.93343 | 20687 ft | 395 kts | 140° |
| 2026-05-09 09:41 | 42.51479 | 20.95779 | 20562 ft | 394 kts | 140° |
| 2026-05-09 09:41 | 42.49409 | 20.98210 | 20436 ft | 393 kts | 140° |
| 2026-05-09 09:42 | 42.47344 | 21.00634 | 20322 ft | 392 kts | 140° |
| 2026-05-09 09:42 | 42.45284 | 21.03050 | 20189 ft | 391 kts | 140° |
| 2026-05-09 09:42 | 42.43228 | 21.05459 | 20068 ft | 390 kts | 140° |
| 2026-05-09 09:42 | 42.41169 | 21.07869 | 19932 ft | 389 kts | 140° |
| 2026-05-09 09:43 | 42.39147 | 21.10233 | 19731 ft | 387 kts | 140° |
| 2026-05-09 09:43 | 42.37116 | 21.12606 | 19510 ft | 385 kts | 140° |
| 2026-05-09 09:43 | 42.35092 | 21.14967 | 19273 ft | 383 kts | 140° |
| 2026-05-09 09:43 | 42.33080 | 21.17312 | 19031 ft | 381 kts | 140° |
| 2026-05-09 09:44 | 42.31079 | 21.19644 | 18799 ft | 379 kts | 140° |
| 2026-05-09 09:44 | 42.29088 | 21.21962 | 18561 ft | 377 kts | 140° |
| 2026-05-09 09:44 | 42.27104 | 21.24268 | 18312 ft | 375 kts | 140° |
| 2026-05-09 09:44 | 42.25128 | 21.26565 | 18032 ft | 372 kts | 140° |
| 2026-05-09 09:45 | 42.23171 | 21.28839 | 17622 ft | 369 kts | 140° |
| 2026-05-09 09:45 | 42.21226 | 21.31098 | 17135 ft | 369 kts | 140° |
| 2026-05-09 09:45 | 42.19297 | 21.33334 | 16664 ft | 368 kts | 140° |
| 2026-05-09 09:45 | 42.17345 | 21.35596 | 16212 ft | 367 kts | 140° |
| 2026-05-09 09:46 | 42.15568 | 21.37653 | 15816 ft | 366 kts | 140° |
| 2026-05-09 09:46 | 42.13640 | 21.39882 | 15379 ft | 364 kts | 140° |
| 2026-05-09 09:46 | 42.11738 | 21.42077 | 14961 ft | 363 kts | 140° |
| 2026-05-09 09:46 | 42.09825 | 21.44286 | 14537 ft | 361 kts | 140° |
| 2026-05-09 09:47 | 42.07918 | 21.46484 | 14106 ft | 360 kts | 140° |
| 2026-05-09 09:47 | 42.06023 | 21.48668 | 13648 ft | 359 kts | 140° |
| 2026-05-09 09:47 | 42.04130 | 21.50848 | 13199 ft | 357 kts | 140° |
| 2026-05-09 09:47 | 42.02249 | 21.53010 | 12790 ft | 354 kts | 140° |
| 2026-05-09 09:48 | 42.00380 | 21.55157 | 12383 ft | 352 kts | 140° |
| 2026-05-09 09:48 | 41.98543 | 21.57267 | 12097 ft | 342 kts | 140° |
| 2026-05-09 09:48 | 41.96741 | 21.59337 | 12053 ft | 339 kts | 140° |
| 2026-05-09 09:48 | 41.94998 | 21.61338 | 12046 ft | 321 kts | 140° |
| 2026-05-09 09:49 | 41.93371 | 21.63203 | 12036 ft | 305 kts | 140° |
| 2026-05-09 09:49 | 41.91873 | 21.65106 | 12019 ft | 290 kts | 136° |
| 2026-05-09 09:49 | 41.90488 | 21.66994 | 11862 ft | 280 kts | 135° |
| 2026-05-09 09:49 | 41.89119 | 21.68883 | 11524 ft | 277 kts | 135° |
| 2026-05-09 09:50 | 41.87795 | 21.70717 | 11159 ft | 277 kts | 135° |
| 2026-05-09 09:50 | 41.86459 | 21.72572 | 10801 ft | 276 kts | 135° |
| 2026-05-09 09:50 | 41.85129 | 21.74424 | 10446 ft | 275 kts | 135° |
| 2026-05-09 09:50 | 41.83803 | 21.76281 | 10083 ft | 274 kts | 135° |
| 2026-05-09 09:51 | 41.82486 | 21.78128 | 9697 ft | 274 kts | 135° |
| 2026-05-09 09:51 | 41.81174 | 21.79967 | 9346 ft | 271 kts | 135° |
| 2026-05-09 09:51 | 41.79890 | 21.81762 | 9149 ft | 263 kts | 135° |
| 2026-05-09 09:51 | 41.78493 | 21.83275 | 8819 ft | 256 kts | 156° |
| 2026-05-09 09:52 | 41.76800 | 21.83797 | 8499 ft | 246 kts | 185° |
| 2026-05-09 09:52 | 41.75220 | 21.83208 | 8274 ft | 230 kts | 214° |
| 2026-05-09 09:52 | 41.74139 | 21.81748 | 7993 ft | 219 kts | 244° |
| 2026-05-09 09:52 | 41.73601 | 21.79871 | 7620 ft | 216 kts | 254° |
| 2026-05-09 09:53 | 41.73183 | 21.77946 | 7256 ft | 215 kts | 255° |
| 2026-05-09 09:53 | 41.72776 | 21.76023 | 6828 ft | 214 kts | 255° |
| 2026-05-09 09:53 | 41.72607 | 21.74076 | 6388 ft | 211 kts | 281° |
| 2026-05-09 09:53 | 41.73204 | 21.72314 | 5887 ft | 210 kts | 310° |
| 2026-05-09 09:54 | 41.74202 | 21.70885 | 5460 ft | 210 kts | 315° |
| 2026-05-09 09:54 | 41.75330 | 21.69665 | 5080 ft | 210 kts | 331° |
| 2026-05-09 09:54 | 41.76664 | 21.68908 | 4824 ft | 208 kts | 342° |
| 2026-05-09 09:54 | 41.78059 | 21.68438 | 4549 ft | 207 kts | 345° |
| 2026-05-09 09:55 | 41.79427 | 21.67965 | 4271 ft | 205 kts | 346° |
| 2026-05-09 09:55 | 41.80813 | 21.67485 | 3975 ft | 205 kts | 345° |
| 2026-05-09 09:55 | 41.82182 | 21.67010 | 3682 ft | 199 kts | 346° |
| 2026-05-09 09:55 | 41.83495 | 21.66554 | 3469 ft | 193 kts | 345° |
| 2026-05-09 09:56 | 41.84781 | 21.66107 | 3163 ft | 189 kts | 346° |
| 2026-05-09 09:56 | 41.86042 | 21.65669 | 2861 ft | 185 kts | 346° |
| 2026-05-09 09:56 | 41.87266 | 21.65244 | 2564 ft | 178 kts | 346° |
| 2026-05-09 09:56 | 41.88440 | 21.64836 | 2289 ft | 171 kts | 346° |
| 2026-05-09 09:57 | 41.89558 | 21.64446 | 2066 ft | 160 kts | 346° |
| 2026-05-09 09:57 | 41.90567 | 21.64095 | 1846 ft | 138 kts | 345° |
| 2026-05-09 09:57 | 41.91487 | 21.63774 | 1625 ft | 136 kts | 346° |
| 2026-05-09 09:57 | 41.92401 | 21.63456 | 1396 ft | 136 kts | 345° |
| 2026-05-09 09:58 | 41.93318 | 21.63141 | 1209 ft | 136 kts | 345° |
| 2026-05-09 09:58 | 41.94233 | 21.62816 | 1016 ft | 136 kts | 344° |
| 2026-05-09 09:58 | 41.95145 | 21.62499 | 823 ft | 136 kts | 343° |
| 2026-05-09 09:58 | 41.95984 | 21.62204 | 793 ft | 101 kts | 345° |
| 2026-05-09 09:59 | 41.96406 | 21.62060 | 795 ft | 19 kts | 346° |
| 2026-05-09 09:59 | 41.96496 | 21.62091 | 796 ft | 15 kts | 71° |
| 2026-05-09 09:59 | 41.96523 | 21.62221 | 798 ft | 12 kts | 74° |
| 2026-05-09 09:59 | 41.96508 | 21.62287 | 798 ft | 7 kts | 156° |
| 2026-05-09 10:00 | 41.96451 | 21.62308 | 798 ft | 10 kts | 163° |
| 2026-05-09 10:00 | 41.96379 | 21.62336 | 798 ft | 12 kts | 166° |
| 2026-05-09 10:00 | 41.96308 | 21.62359 | 797 ft | 11 kts | 166° |
| 2026-05-09 10:00 | 41.96225 | 21.62387 | 797 ft | 14 kts | 166° |
| 2026-05-09 10:01 | 41.96131 | 21.62419 | 797 ft | 15 kts | 166° |
| 2026-05-09 10:01 | 41.96048 | 21.62449 | 796 ft | 7 kts | 164° |
| 2026-05-09 10:01 | 41.96014 | 21.62480 | 797 ft | 8 kts | 110° |
| 2026-05-09 10:01 | 41.96020 | 21.62540 | 798 ft | 4 kts | 76° |
| 2026-05-09 10:02 | 41.96027 | 21.62575 | 798 ft | 2 kts | 75° |
| 2026-05-09 10:02 | 41.96031 | 21.62595 | 798 ft | 2 kts | 76° |
| 2026-05-09 10:02 | 41.96032 | 21.62601 | 798 ft | 1 kts | 76° |